sensor_id;sensor_type;location;lat;lon;timestamp;P1;durP1;ratioP1;P2;durP2;ratioP2
1569;SDS011;778;50.120;8.698;2023-07-24T00:00:48;3.23;;;2.93;;
1569;SDS011;778;50.120;8.698;2023-07-24T00:03:16;3.60;;;2.03;;
1569;SDS011;778;50.120;8.698;2023-07-24T00:05:46;3.17;;;2.93;;
1569;SDS011;778;50.120;8.698;2023-07-24T00:08:14;3.27;;;2.60;;
1569;SDS011;778;50.120;8.698;2023-07-24T00:10:43;3.60;;;3.13;;
1569;SDS011;778;50.120;8.698;2023-07-24T00:13:11;5.23;;;2.47;;
1569;SDS011;778;50.120;8.698;2023-07-24T00:15:40;2.97;;;2.77;;
1569;SDS011;778;50.120;8.698;2023-07-24T00:18:08;2.93;;;2.63;;
1569;SDS011;778;50.120;8.698;2023-07-24T00:20:37;2.60;;;2.40;;
1569;SDS011;778;50.120;8.698;2023-07-24T00:23:06;4.10;;;2.60;;
1569;SDS011;778;50.120;8.698;2023-07-24T00:25:35;3.60;;;3.30;;
1569;SDS011;778;50.120;8.698;2023-07-24T00:28:03;3.47;;;2.97;;
1569;SDS011;778;50.120;8.698;2023-07-24T00:30:32;4.50;;;3.17;;
1569;SDS011;778;50.120;8.698;2023-07-24T00:33:00;4.33;;;3.00;;
1569;SDS011;778;50.120;8.698;2023-07-24T00:35:28;3.40;;;3.10;;
1569;SDS011;778;50.120;8.698;2023-07-24T00:37:57;4.27;;;3.37;;
1569;SDS011;778;50.120;8.698;2023-07-24T00:40:27;5.83;;;3.63;;
1569;SDS011;778;50.120;8.698;2023-07-24T00:42:55;3.43;;;2.93;;
1569;SDS011;778;50.120;8.698;2023-07-24T00:45:23;3.87;;;3.47;;
1569;SDS011;778;50.120;8.698;2023-07-24T00:47:52;3.60;;;3.10;;
1569;SDS011;778;50.120;8.698;2023-07-24T00:50:21;4.03;;;3.60;;
1569;SDS011;778;50.120;8.698;2023-07-24T00:52:50;4.03;;;3.63;;
1569;SDS011;778;50.120;8.698;2023-07-24T00:55:18;3.50;;;3.00;;
1569;SDS011;778;50.120;8.698;2023-07-24T00:57:48;5.07;;;3.60;;
1569;SDS011;778;50.120;8.698;2023-07-24T01:00:17;4.40;;;3.63;;
1569;SDS011;778;50.120;8.698;2023-07-24T01:02:46;3.30;;;3.00;;
1569;SDS011;778;50.120;8.698;2023-07-24T01:05:15;4.87;;;3.40;;
1569;SDS011;778;50.120;8.698;2023-07-24T01:07:44;5.13;;;3.17;;
1569;SDS011;778;50.120;8.698;2023-07-24T01:10:14;4.90;;;3.63;;
1569;SDS011;778;50.120;8.698;2023-07-24T01:12:44;3.17;;;2.87;;
1569;SDS011;778;50.120;8.698;2023-07-24T01:15:23;4.17;;;3.67;;
1569;SDS011;778;50.120;8.698;2023-07-24T01:17:59;4.07;;;3.00;;
1569;SDS011;778;50.120;8.698;2023-07-24T01:20:33;6.90;;;4.10;;
1569;SDS011;778;50.120;8.698;2023-07-24T01:23:09;10.00;;;3.73;;
1569;SDS011;778;50.120;8.698;2023-07-24T01:25:55;3.53;;;3.10;;
1569;SDS011;778;50.120;8.698;2023-07-24T01:28:25;3.57;;;3.27;;
1569;SDS011;778;50.120;8.698;2023-07-24T01:30:54;5.23;;;3.27;;
1569;SDS011;778;50.120;8.698;2023-07-24T01:33:23;4.20;;;3.80;;
1569;SDS011;778;50.120;8.698;2023-07-24T01:35:54;4.20;;;3.80;;
1569;SDS011;778;50.120;8.698;2023-07-24T01:38:25;6.90;;;3.73;;
1569;SDS011;778;50.120;8.698;2023-07-24T01:40:56;4.93;;;4.53;;
1569;SDS011;778;50.120;8.698;2023-07-24T01:43:25;3.50;;;3.20;;
1569;SDS011;778;50.120;8.698;2023-07-24T01:45:54;5.00;;;3.17;;
1569;SDS011;778;50.120;8.698;2023-07-24T01:48:22;3.97;;;3.50;;
1569;SDS011;778;50.120;8.698;2023-07-24T01:50:53;4.67;;;3.97;;
1569;SDS011;778;50.120;8.698;2023-07-24T01:53:21;3.40;;;3.10;;
1569;SDS011;778;50.120;8.698;2023-07-24T01:55:50;3.37;;;3.00;;
1569;SDS011;778;50.120;8.698;2023-07-24T01:58:20;6.73;;;3.33;;
1569;SDS011;778;50.120;8.698;2023-07-24T02:00:49;4.20;;;3.80;;
1569;SDS011;778;50.120;8.698;2023-07-24T02:03:17;4.10;;;3.80;;
1569;SDS011;778;50.120;8.698;2023-07-24T02:05:48;3.80;;;3.50;;
1569;SDS011;778;50.120;8.698;2023-07-24T02:08:18;3.43;;;3.13;;
1569;SDS011;778;50.120;8.698;2023-07-24T02:10:48;4.10;;;3.70;;
1569;SDS011;778;50.120;8.698;2023-07-24T02:13:17;4.13;;;3.73;;
1569;SDS011;778;50.120;8.698;2023-07-24T02:15:48;4.83;;;3.23;;
1569;SDS011;778;50.120;8.698;2023-07-24T02:18:17;3.60;;;3.13;;
1569;SDS011;778;50.120;8.698;2023-07-24T02:20:48;4.10;;;3.70;;
1569;SDS011;778;50.120;8.698;2023-07-24T02:23:17;4.30;;;3.67;;
1569;SDS011;778;50.120;8.698;2023-07-24T02:25:46;3.93;;;3.53;;
1569;SDS011;778;50.120;8.698;2023-07-24T02:28:19;3.80;;;3.17;;
1569;SDS011;778;50.120;8.698;2023-07-24T02:30:48;3.87;;;3.57;;
1569;SDS011;778;50.120;8.698;2023-07-24T02:33:18;5.17;;;3.53;;
1569;SDS011;778;50.120;8.698;2023-07-24T02:35:46;4.03;;;3.73;;
1569;SDS011;778;50.120;8.698;2023-07-24T02:38:15;5.03;;;4.57;;
1569;SDS011;778;50.120;8.698;2023-07-24T02:40:43;4.40;;;4.07;;
1569;SDS011;778;50.120;8.698;2023-07-24T02:43:13;4.50;;;3.90;;
1569;SDS011;778;50.120;8.698;2023-07-24T02:45:43;3.77;;;3.47;;
1569;SDS011;778;50.120;8.698;2023-07-24T02:48:11;4.30;;;3.90;;
1569;SDS011;778;50.120;8.698;2023-07-24T02:50:40;4.57;;;3.90;;
1569;SDS011;778;50.120;8.698;2023-07-24T02:53:08;4.60;;;3.80;;
1569;SDS011;778;50.120;8.698;2023-07-24T02:55:38;4.20;;;3.90;;
1569;SDS011;778;50.120;8.698;2023-07-24T02:58:10;4.57;;;3.50;;
1569;SDS011;778;50.120;8.698;2023-07-24T03:00:39;5.30;;;4.80;;
1569;SDS011;778;50.120;8.698;2023-07-24T03:03:10;5.13;;;4.23;;
1569;SDS011;778;50.120;8.698;2023-07-24T03:05:38;4.80;;;4.40;;
1569;SDS011;778;50.120;8.698;2023-07-24T03:08:07;4.23;;;3.80;;
1569;SDS011;778;50.120;8.698;2023-07-24T03:10:35;5.23;;;4.13;;
1569;SDS011;778;50.120;8.698;2023-07-24T03:13:08;4.53;;;4.07;;
1569;SDS011;778;50.120;8.698;2023-07-24T03:15:36;4.33;;;3.93;;
1569;SDS011;778;50.120;8.698;2023-07-24T03:18:05;7.03;;;4.07;;
1569;SDS011;778;50.120;8.698;2023-07-24T03:20:35;5.37;;;4.00;;
1569;SDS011;778;50.120;8.698;2023-07-24T03:23:03;5.90;;;4.10;;
1569;SDS011;778;50.120;8.698;2023-07-24T03:25:31;4.90;;;4.13;;
1569;SDS011;778;50.120;8.698;2023-07-24T03:28:02;4.93;;;4.43;;
1569;SDS011;778;50.120;8.698;2023-07-24T03:30:30;5.27;;;4.77;;
1569;SDS011;778;50.120;8.698;2023-07-24T03:32:59;5.40;;;4.87;;
1569;SDS011;778;50.120;8.698;2023-07-24T03:35:29;6.27;;;4.70;;
1569;SDS011;778;50.120;8.698;2023-07-24T03:37:59;6.50;;;5.10;;
1569;SDS011;778;50.120;8.698;2023-07-24T03:40:28;5.13;;;4.70;;
1569;SDS011;778;50.120;8.698;2023-07-24T03:42:56;6.07;;;5.47;;
1569;SDS011;778;50.120;8.698;2023-07-24T03:45:25;10.60;;;4.97;;
1569;SDS011;778;50.120;8.698;2023-07-24T03:47:53;6.07;;;5.47;;
1569;SDS011;778;50.120;8.698;2023-07-24T03:50:22;5.37;;;4.83;;
1569;SDS011;778;50.120;8.698;2023-07-24T03:52:50;5.80;;;5.00;;
1569;SDS011;778;50.120;8.698;2023-07-24T03:55:20;6.30;;;5.70;;
1569;SDS011;778;50.120;8.698;2023-07-24T03:57:49;5.80;;;5.30;;
1569;SDS011;778;50.120;8.698;2023-07-24T04:00:17;4.93;;;4.20;;
1569;SDS011;778;50.120;8.698;2023-07-24T04:02:46;6.90;;;5.60;;
1569;SDS011;778;50.120;8.698;2023-07-24T04:05:15;5.13;;;4.40;;
1569;SDS011;778;50.120;8.698;2023-07-24T04:07:43;6.23;;;4.60;;
1569;SDS011;778;50.120;8.698;2023-07-24T04:10:12;5.80;;;4.57;;
1569;SDS011;778;50.120;8.698;2023-07-24T04:12:42;5.00;;;4.60;;
1569;SDS011;778;50.120;8.698;2023-07-24T04:15:10;5.30;;;4.40;;
1569;SDS011;778;50.120;8.698;2023-07-24T04:17:38;5.50;;;4.50;;
1569;SDS011;778;50.120;8.698;2023-07-24T04:20:08;6.10;;;5.20;;
1569;SDS011;778;50.120;8.698;2023-07-24T04:22:37;5.83;;;5.23;;
1569;SDS011;778;50.120;8.698;2023-07-24T04:25:06;6.97;;;4.80;;
1569;SDS011;778;50.120;8.698;2023-07-24T04:27:35;5.53;;;5.00;;
1569;SDS011;778;50.120;8.698;2023-07-24T04:30:06;6.57;;;5.13;;
1569;SDS011;778;50.120;8.698;2023-07-24T04:32:35;5.73;;;5.07;;
1569;SDS011;778;50.120;8.698;2023-07-24T04:35:04;6.03;;;5.30;;
1569;SDS011;778;50.120;8.698;2023-07-24T04:37:34;5.70;;;4.63;;
1569;SDS011;778;50.120;8.698;2023-07-24T04:40:03;7.53;;;5.30;;
1569;SDS011;778;50.120;8.698;2023-07-24T04:42:33;5.53;;;4.80;;
1569;SDS011;778;50.120;8.698;2023-07-24T04:45:01;5.70;;;5.07;;
1569;SDS011;778;50.120;8.698;2023-07-24T04:47:32;6.20;;;4.60;;
1569;SDS011;778;50.120;8.698;2023-07-24T04:50:00;4.73;;;4.30;;
1569;SDS011;778;50.120;8.698;2023-07-24T04:52:29;5.07;;;4.40;;
1569;SDS011;778;50.120;8.698;2023-07-24T04:54:57;8.43;;;5.17;;
1569;SDS011;778;50.120;8.698;2023-07-24T04:57:25;8.70;;;5.13;;
1569;SDS011;778;50.120;8.698;2023-07-24T04:59:54;6.80;;;4.70;;
1569;SDS011;778;50.120;8.698;2023-07-24T05:02:22;9.53;;;6.53;;
1569;SDS011;778;50.120;8.698;2023-07-24T05:04:52;5.07;;;4.57;;
1569;SDS011;778;50.120;8.698;2023-07-24T05:07:20;6.53;;;5.50;;
1569;SDS011;778;50.120;8.698;2023-07-24T05:09:49;7.37;;;5.67;;
1569;SDS011;778;50.120;8.698;2023-07-24T05:12:17;5.83;;;5.00;;
1569;SDS011;778;50.120;8.698;2023-07-24T05:14:46;8.57;;;5.03;;
1569;SDS011;778;50.120;8.698;2023-07-24T05:17:14;7.93;;;5.83;;
1569;SDS011;778;50.120;8.698;2023-07-24T05:19:43;7.70;;;6.60;;
1569;SDS011;778;50.120;8.698;2023-07-24T05:22:13;8.10;;;6.30;;
1569;SDS011;778;50.120;8.698;2023-07-24T05:24:41;10.50;;;6.10;;
1569;SDS011;778;50.120;8.698;2023-07-24T05:27:10;8.07;;;5.50;;
1569;SDS011;778;50.120;8.698;2023-07-24T05:29:39;7.23;;;6.50;;
1569;SDS011;778;50.120;8.698;2023-07-24T05:32:07;6.77;;;6.03;;
1569;SDS011;778;50.120;8.698;2023-07-24T05:34:36;8.60;;;7.30;;
1569;SDS011;778;50.120;8.698;2023-07-24T05:37:05;7.70;;;7.00;;
1569;SDS011;778;50.120;8.698;2023-07-24T05:39:35;9.47;;;6.33;;
1569;SDS011;778;50.120;8.698;2023-07-24T05:42:03;8.20;;;7.13;;
1569;SDS011;778;50.120;8.698;2023-07-24T05:44:32;8.20;;;6.97;;
1569;SDS011;778;50.120;8.698;2023-07-24T05:47:03;13.47;;;12.20;;
1569;SDS011;778;50.120;8.698;2023-07-24T05:49:32;7.67;;;6.30;;
1569;SDS011;778;50.120;8.698;2023-07-24T05:52:00;6.57;;;5.40;;
1569;SDS011;778;50.120;8.698;2023-07-24T05:54:29;9.70;;;6.07;;
1569;SDS011;778;50.120;8.698;2023-07-24T05:56:58;10.33;;;6.80;;
1569;SDS011;778;50.120;8.698;2023-07-24T05:59:27;7.80;;;7.00;;
1569;SDS011;778;50.120;8.698;2023-07-24T06:01:55;8.63;;;6.70;;
1569;SDS011;778;50.120;8.698;2023-07-24T06:04:24;10.27;;;7.10;;
1569;SDS011;778;50.120;8.698;2023-07-24T06:06:52;9.10;;;7.90;;
1569;SDS011;778;50.120;8.698;2023-07-24T06:09:21;8.07;;;6.70;;
1569;SDS011;778;50.120;8.698;2023-07-24T06:11:50;11.37;;;8.17;;
1569;SDS011;778;50.120;8.698;2023-07-24T06:14:20;8.57;;;7.67;;
1569;SDS011;778;50.120;8.698;2023-07-24T06:16:48;11.80;;;8.70;;
1569;SDS011;778;50.120;8.698;2023-07-24T06:19:17;15.70;;;8.00;;
1569;SDS011;778;50.120;8.698;2023-07-24T06:21:45;9.40;;;7.00;;
1569;SDS011;778;50.120;8.698;2023-07-24T06:24:13;9.27;;;8.27;;
1569;SDS011;778;50.120;8.698;2023-07-24T06:26:42;8.50;;;7.40;;
1569;SDS011;778;50.120;8.698;2023-07-24T06:29:11;10.40;;;7.43;;
1569;SDS011;778;50.120;8.698;2023-07-24T06:31:42;13.47;;;7.17;;
1569;SDS011;778;50.120;8.698;2023-07-24T06:34:11;12.23;;;7.47;;
1569;SDS011;778;50.120;8.698;2023-07-24T06:36:39;11.00;;;8.47;;
1569;SDS011;778;50.120;8.698;2023-07-24T06:39:07;8.53;;;7.50;;
1569;SDS011;778;50.120;8.698;2023-07-24T06:41:36;8.63;;;7.47;;
1569;SDS011;778;50.120;8.698;2023-07-24T06:44:04;9.23;;;6.80;;
1569;SDS011;778;50.120;8.698;2023-07-24T06:46:33;9.17;;;8.27;;
1569;SDS011;778;50.120;8.698;2023-07-24T06:49:03;8.73;;;7.87;;
1569;SDS011;778;50.120;8.698;2023-07-24T06:51:31;8.70;;;6.87;;
1569;SDS011;778;50.120;8.698;2023-07-24T06:54:00;9.47;;;7.50;;
1569;SDS011;778;50.120;8.698;2023-07-24T06:56:29;9.20;;;7.60;;
1569;SDS011;778;50.120;8.698;2023-07-24T06:58:58;8.50;;;7.60;;
1569;SDS011;778;50.120;8.698;2023-07-24T07:01:26;9.90;;;7.67;;
1569;SDS011;778;50.120;8.698;2023-07-24T07:03:54;10.37;;;7.87;;
1569;SDS011;778;50.120;8.698;2023-07-24T07:06:24;8.20;;;7.40;;
1569;SDS011;778;50.120;8.698;2023-07-24T07:08:54;8.23;;;7.43;;
1569;SDS011;778;50.120;8.698;2023-07-24T07:11:22;8.73;;;7.73;;
1569;SDS011;778;50.120;8.698;2023-07-24T07:13:50;9.30;;;7.10;;
1569;SDS011;778;50.120;8.698;2023-07-24T07:16:19;9.67;;;7.40;;
1569;SDS011;778;50.120;8.698;2023-07-24T07:18:47;8.53;;;7.73;;
1569;SDS011;778;50.120;8.698;2023-07-24T07:21:16;8.37;;;7.20;;
1569;SDS011;778;50.120;8.698;2023-07-24T07:23:46;7.50;;;6.77;;
1569;SDS011;778;50.120;8.698;2023-07-24T07:26:14;7.50;;;6.80;;
1569;SDS011;778;50.120;8.698;2023-07-24T07:28:42;9.20;;;6.87;;
1569;SDS011;778;50.120;8.698;2023-07-24T07:31:11;6.33;;;5.73;;
1569;SDS011;778;50.120;8.698;2023-07-24T07:33:39;6.57;;;5.87;;
1569;SDS011;778;50.120;8.698;2023-07-24T07:36:08;8.03;;;6.80;;
1569;SDS011;778;50.120;8.698;2023-07-24T07:38:36;7.60;;;6.03;;
1569;SDS011;778;50.120;8.698;2023-07-24T07:41:07;8.47;;;5.47;;
1569;SDS011;778;50.120;8.698;2023-07-24T07:43:35;9.70;;;6.20;;
1569;SDS011;778;50.120;8.698;2023-07-24T07:46:05;7.17;;;5.83;;
1569;SDS011;778;50.120;8.698;2023-07-24T07:48:32;7.17;;;5.37;;
1569;SDS011;778;50.120;8.698;2023-07-24T07:51:01;7.50;;;5.50;;
1569;SDS011;778;50.120;8.698;2023-07-24T07:53:29;6.47;;;4.73;;
1569;SDS011;778;50.120;8.698;2023-07-24T07:55:59;7.13;;;4.90;;
1569;SDS011;778;50.120;8.698;2023-07-24T07:58:28;5.20;;;4.70;;
1569;SDS011;778;50.120;8.698;2023-07-24T08:00:57;4.70;;;4.30;;
1569;SDS011;778;50.120;8.698;2023-07-24T08:03:25;4.47;;;3.90;;
1569;SDS011;778;50.120;8.698;2023-07-24T08:05:56;5.10;;;4.67;;
1569;SDS011;778;50.120;8.698;2023-07-24T08:08:25;6.73;;;4.10;;
1569;SDS011;778;50.120;8.698;2023-07-24T08:10:53;4.03;;;3.73;;
1569;SDS011;778;50.120;8.698;2023-07-24T08:13:22;5.27;;;4.77;;
1569;SDS011;778;50.120;8.698;2023-07-24T08:15:51;6.00;;;4.80;;
1569;SDS011;778;50.120;8.698;2023-07-24T08:18:20;6.20;;;4.73;;
1569;SDS011;778;50.120;8.698;2023-07-24T08:20:48;4.93;;;4.33;;
1569;SDS011;778;50.120;8.698;2023-07-24T08:23:17;5.80;;;4.10;;
1569;SDS011;778;50.120;8.698;2023-07-24T08:25:54;4.87;;;3.93;;
1569;SDS011;778;50.120;8.698;2023-07-24T08:28:23;5.90;;;4.67;;
1569;SDS011;778;50.120;8.698;2023-07-24T08:30:59;4.80;;;4.40;;
1569;SDS011;778;50.120;8.698;2023-07-24T08:33:32;7.20;;;3.97;;
1569;SDS011;778;50.120;8.698;2023-07-24T08:36:01;6.60;;;4.60;;
1569;SDS011;778;50.120;8.698;2023-07-24T08:38:31;5.23;;;4.73;;
1569;SDS011;778;50.120;8.698;2023-07-24T08:41:04;5.07;;;4.03;;
1569;SDS011;778;50.120;8.698;2023-07-24T08:43:34;5.60;;;4.50;;
1569;SDS011;778;50.120;8.698;2023-07-24T08:46:06;4.73;;;4.33;;
1569;SDS011;778;50.120;8.698;2023-07-24T08:48:35;4.53;;;4.00;;
1569;SDS011;778;50.120;8.698;2023-07-24T08:51:06;5.33;;;4.23;;
1569;SDS011;778;50.120;8.698;2023-07-24T08:53:36;5.00;;;4.37;;
1569;SDS011;778;50.120;8.698;2023-07-24T08:56:07;5.97;;;4.30;;
1569;SDS011;778;50.120;8.698;2023-07-24T08:58:38;4.10;;;3.60;;
1569;SDS011;778;50.120;8.698;2023-07-24T09:01:08;4.40;;;3.73;;
1569;SDS011;778;50.120;8.698;2023-07-24T09:03:37;5.40;;;4.43;;
1569;SDS011;778;50.120;8.698;2023-07-24T09:06:05;6.90;;;4.13;;
1569;SDS011;778;50.120;8.698;2023-07-24T09:08:35;4.63;;;4.00;;
1569;SDS011;778;50.120;8.698;2023-07-24T09:11:06;5.40;;;4.03;;
1569;SDS011;778;50.120;8.698;2023-07-24T09:13:36;5.57;;;3.83;;
1569;SDS011;778;50.120;8.698;2023-07-24T09:16:20;8.80;;;4.60;;
1569;SDS011;778;50.120;8.698;2023-07-24T09:18:50;4.43;;;3.97;;
1569;SDS011;778;50.120;8.698;2023-07-24T09:21:28;3.60;;;3.30;;
1569;SDS011;778;50.120;8.698;2023-07-24T09:24:08;6.47;;;3.77;;
1569;SDS011;778;50.120;8.698;2023-07-24T09:26:48;5.90;;;3.80;;
1569;SDS011;778;50.120;8.698;2023-07-24T09:29:29;6.00;;;3.70;;
1569;SDS011;778;50.120;8.698;2023-07-24T09:32:00;4.07;;;3.50;;
1569;SDS011;778;50.120;8.698;2023-07-24T09:34:28;7.07;;;4.03;;
1569;SDS011;778;50.120;8.698;2023-07-24T09:36:57;4.80;;;3.70;;
1569;SDS011;778;50.120;8.698;2023-07-24T09:39:25;6.73;;;4.10;;
1569;SDS011;778;50.120;8.698;2023-07-24T09:42:02;4.40;;;4.00;;
1569;SDS011;778;50.120;8.698;2023-07-24T09:44:31;5.80;;;4.30;;
1569;SDS011;778;50.120;8.698;2023-07-24T09:47:01;4.77;;;3.80;;
1569;SDS011;778;50.120;8.698;2023-07-24T09:49:50;4.90;;;4.40;;
1569;SDS011;778;50.120;8.698;2023-07-24T09:52:20;5.10;;;4.60;;
1569;SDS011;778;50.120;8.698;2023-07-24T09:54:52;5.73;;;4.07;;
1569;SDS011;778;50.120;8.698;2023-07-24T09:57:27;5.97;;;5.37;;
1569;SDS011;778;50.120;8.698;2023-07-24T09:59:57;7.90;;;4.07;;
1569;SDS011;778;50.120;8.698;2023-07-24T10:02:27;4.93;;;4.53;;
1569;SDS011;778;50.120;8.698;2023-07-24T10:04:56;5.47;;;4.97;;
1569;SDS011;778;50.120;8.698;2023-07-24T10:07:24;5.80;;;5.13;;
1569;SDS011;778;50.120;8.698;2023-07-24T10:09:53;6.67;;;5.20;;
1569;SDS011;778;50.120;8.698;2023-07-24T10:12:22;8.67;;;6.00;;
1569;SDS011;778;50.120;8.698;2023-07-24T10:14:54;4.90;;;4.30;;
1569;SDS011;778;50.120;8.698;2023-07-24T10:17:35;9.73;;;4.77;;
1569;SDS011;778;50.120;8.698;2023-07-24T10:20:04;6.10;;;4.30;;
1569;SDS011;778;50.120;8.698;2023-07-24T10:22:35;5.63;;;4.37;;
1569;SDS011;778;50.120;8.698;2023-07-24T10:25:08;4.60;;;4.03;;
1569;SDS011;778;50.120;8.698;2023-07-24T10:27:39;5.40;;;4.00;;
1569;SDS011;778;50.120;8.698;2023-07-24T10:30:10;5.27;;;4.77;;
1569;SDS011;778;50.120;8.698;2023-07-24T10:32:46;5.13;;;4.33;;
1569;SDS011;778;50.120;8.698;2023-07-24T10:35:21;7.50;;;5.47;;
1569;SDS011;778;50.120;8.698;2023-07-24T10:37:58;5.57;;;4.97;;
1569;SDS011;778;50.120;8.698;2023-07-24T10:40:27;5.70;;;5.10;;
1569;SDS011;778;50.120;8.698;2023-07-24T10:43:00;6.30;;;5.70;;
1569;SDS011;778;50.120;8.698;2023-07-24T10:45:39;5.63;;;4.93;;
1569;SDS011;778;50.120;8.698;2023-07-24T10:48:17;6.10;;;5.50;;
1569;SDS011;778;50.120;8.698;2023-07-24T10:50:48;5.97;;;4.70;;
1569;SDS011;778;50.120;8.698;2023-07-24T10:53:20;5.73;;;5.20;;
1569;SDS011;778;50.120;8.698;2023-07-24T10:55:50;6.00;;;5.50;;
1569;SDS011;778;50.120;8.698;2023-07-24T10:58:19;5.50;;;4.87;;
1569;SDS011;778;50.120;8.698;2023-07-24T11:00:47;6.20;;;4.90;;
1569;SDS011;778;50.120;8.698;2023-07-24T11:03:17;6.27;;;5.67;;
1569;SDS011;778;50.120;8.698;2023-07-24T11:05:47;5.43;;;4.93;;
1569;SDS011;778;50.120;8.698;2023-07-24T11:08:16;5.60;;;5.10;;
1569;SDS011;778;50.120;8.698;2023-07-24T11:10:47;6.23;;;5.17;;
1569;SDS011;778;50.120;8.698;2023-07-24T11:13:17;6.20;;;5.07;;
1569;SDS011;778;50.120;8.698;2023-07-24T11:15:48;5.90;;;4.37;;
1569;SDS011;778;50.120;8.698;2023-07-24T11:18:19;6.43;;;5.37;;
1569;SDS011;778;50.120;8.698;2023-07-24T11:21:02;7.80;;;4.80;;
1569;SDS011;778;50.120;8.698;2023-07-24T11:23:33;6.20;;;5.60;;
1569;SDS011;778;50.120;8.698;2023-07-24T11:26:03;6.00;;;4.57;;
1569;SDS011;778;50.120;8.698;2023-07-24T11:28:39;5.60;;;5.10;;
1569;SDS011;778;50.120;8.698;2023-07-24T11:31:08;8.00;;;5.33;;
1569;SDS011;778;50.120;8.698;2023-07-24T11:33:39;5.80;;;5.30;;
1569;SDS011;778;50.120;8.698;2023-07-24T11:36:07;5.70;;;5.20;;
1569;SDS011;778;50.120;8.698;2023-07-24T11:38:37;5.70;;;5.10;;
1569;SDS011;778;50.120;8.698;2023-07-24T11:41:07;6.07;;;5.10;;
1569;SDS011;778;50.120;8.698;2023-07-24T11:43:44;6.17;;;5.40;;
1569;SDS011;778;50.120;8.698;2023-07-24T11:46:24;5.57;;;4.80;;
1569;SDS011;778;50.120;8.698;2023-07-24T11:48:56;5.47;;;4.90;;
1569;SDS011;778;50.120;8.698;2023-07-24T11:51:25;6.30;;;4.70;;
1569;SDS011;778;50.120;8.698;2023-07-24T11:54:04;9.20;;;4.87;;
1569;SDS011;778;50.120;8.698;2023-07-24T11:56:34;7.07;;;5.60;;
1569;SDS011;778;50.120;8.698;2023-07-24T11:59:10;8.00;;;5.33;;
1569;SDS011;778;50.120;8.698;2023-07-24T12:01:39;7.50;;;5.13;;
1569;SDS011;778;50.120;8.698;2023-07-24T12:04:09;6.17;;;5.53;;
1569;SDS011;778;50.120;8.698;2023-07-24T12:06:38;6.37;;;5.77;;
1569;SDS011;778;50.120;8.698;2023-07-24T12:09:07;5.63;;;5.13;;
1569;SDS011;778;50.120;8.698;2023-07-24T12:11:38;5.53;;;4.93;;
1569;SDS011;778;50.120;8.698;2023-07-24T12:14:12;7.60;;;4.47;;
1569;SDS011;778;50.120;8.698;2023-07-24T12:16:41;5.50;;;4.60;;
1569;SDS011;778;50.120;8.698;2023-07-24T12:19:11;5.73;;;4.70;;
1569;SDS011;778;50.120;8.698;2023-07-24T12:21:40;6.83;;;4.87;;
1569;SDS011;778;50.120;8.698;2023-07-24T12:24:08;6.53;;;5.57;;
1569;SDS011;778;50.120;8.698;2023-07-24T12:26:37;4.80;;;4.40;;
1569;SDS011;778;50.120;8.698;2023-07-24T12:29:05;5.83;;;5.33;;
1569;SDS011;778;50.120;8.698;2023-07-24T12:31:34;7.60;;;5.50;;
1569;SDS011;778;50.120;8.698;2023-07-24T12:34:03;6.00;;;5.40;;
1569;SDS011;778;50.120;8.698;2023-07-24T12:36:33;8.80;;;4.57;;
1569;SDS011;778;50.120;8.698;2023-07-24T12:39:01;4.13;;;3.80;;
1569;SDS011;778;50.120;8.698;2023-07-24T12:41:31;5.70;;;4.93;;
1569;SDS011;778;50.120;8.698;2023-07-24T12:44:00;5.30;;;4.53;;
1569;SDS011;778;50.120;8.698;2023-07-24T12:46:28;5.77;;;4.40;;
1569;SDS011;778;50.120;8.698;2023-07-24T12:48:57;5.20;;;4.70;;
1569;SDS011;778;50.120;8.698;2023-07-24T12:51:25;6.13;;;4.07;;
1569;SDS011;778;50.120;8.698;2023-07-24T12:53:56;7.37;;;4.90;;
1569;SDS011;778;50.120;8.698;2023-07-24T12:56:38;6.47;;;4.40;;
1569;SDS011;778;50.120;8.698;2023-07-24T12:59:07;6.50;;;5.20;;
1569;SDS011;778;50.120;8.698;2023-07-24T13:01:35;4.90;;;4.50;;
1569;SDS011;778;50.120;8.698;2023-07-24T13:04:04;5.03;;;4.50;;
1569;SDS011;778;50.120;8.698;2023-07-24T13:06:32;5.23;;;4.70;;
1569;SDS011;778;50.120;8.698;2023-07-24T13:09:02;4.53;;;4.10;;
1569;SDS011;778;50.120;8.698;2023-07-24T13:11:31;5.33;;;4.83;;
1569;SDS011;778;50.120;8.698;2023-07-24T13:14:00;5.93;;;5.33;;
1569;SDS011;778;50.120;8.698;2023-07-24T13:16:28;6.00;;;5.07;;
1569;SDS011;778;50.120;8.698;2023-07-24T13:18:57;4.53;;;4.23;;
1569;SDS011;778;50.120;8.698;2023-07-24T13:21:26;4.53;;;4.13;;
1569;SDS011;778;50.120;8.698;2023-07-24T13:23:55;5.60;;;4.80;;
1569;SDS011;778;50.120;8.698;2023-07-24T13:26:25;5.30;;;4.80;;
1569;SDS011;778;50.120;8.698;2023-07-24T13:28:54;6.90;;;4.70;;
1569;SDS011;778;50.120;8.698;2023-07-24T13:31:22;8.87;;;5.57;;
1569;SDS011;778;50.120;8.698;2023-07-24T13:33:51;6.70;;;6.10;;
1569;SDS011;778;50.120;8.698;2023-07-24T13:36:19;5.47;;;4.87;;
1569;SDS011;778;50.120;8.698;2023-07-24T13:38:48;4.80;;;4.40;;
1569;SDS011;778;50.120;8.698;2023-07-24T13:41:16;4.30;;;3.97;;
1569;SDS011;778;50.120;8.698;2023-07-24T13:43:46;6.20;;;5.60;;
1569;SDS011;778;50.120;8.698;2023-07-24T13:46:15;6.80;;;4.70;;
1569;SDS011;778;50.120;8.698;2023-07-24T13:48:43;4.87;;;4.37;;
1569;SDS011;778;50.120;8.698;2023-07-24T13:51:12;6.37;;;5.20;;
1569;SDS011;778;50.120;8.698;2023-07-24T13:53:40;6.93;;;6.17;;
1569;SDS011;778;50.120;8.698;2023-07-24T13:56:09;5.70;;;5.07;;
1569;SDS011;778;50.120;8.698;2023-07-24T13:58:37;5.60;;;5.17;;
1569;SDS011;778;50.120;8.698;2023-07-24T14:01:07;7.33;;;5.00;;
1569;SDS011;778;50.120;8.698;2023-07-24T14:03:35;9.23;;;5.37;;
1569;SDS011;778;50.120;8.698;2023-07-24T14:06:04;6.40;;;5.50;;
1569;SDS011;778;50.120;8.698;2023-07-24T14:08:32;5.90;;;5.30;;
1569;SDS011;778;50.120;8.698;2023-07-24T14:11:01;5.57;;;4.60;;
1569;SDS011;778;50.120;8.698;2023-07-24T14:13:30;6.40;;;4.30;;
1569;SDS011;778;50.120;8.698;2023-07-24T14:15:58;5.30;;;4.17;;
1569;SDS011;778;50.120;8.698;2023-07-24T14:18:28;5.70;;;4.30;;
1569;SDS011;778;50.120;8.698;2023-07-24T14:20:57;4.97;;;4.47;;
1569;SDS011;778;50.120;8.698;2023-07-24T14:23:26;5.07;;;4.67;;
1569;SDS011;778;50.120;8.698;2023-07-24T14:25:54;5.10;;;4.70;;
1569;SDS011;778;50.120;8.698;2023-07-24T14:28:23;5.13;;;4.73;;
1569;SDS011;778;50.120;8.698;2023-07-24T14:30:51;7.47;;;6.60;;
1569;SDS011;778;50.120;8.698;2023-07-24T14:33:20;6.03;;;5.33;;
1569;SDS011;778;50.120;8.698;2023-07-24T14:35:50;11.13;;;5.80;;
1569;SDS011;778;50.120;8.698;2023-07-24T14:38:19;6.83;;;6.23;;
1569;SDS011;778;50.120;8.698;2023-07-24T14:40:47;6.17;;;5.57;;
1569;SDS011;778;50.120;8.698;2023-07-24T14:43:15;7.57;;;6.77;;
1569;SDS011;778;50.120;8.698;2023-07-24T14:45:44;8.77;;;7.10;;
1569;SDS011;778;50.120;8.698;2023-07-24T14:48:12;6.83;;;6.23;;
1569;SDS011;778;50.120;8.698;2023-07-24T14:50:43;7.67;;;6.90;;
1569;SDS011;778;50.120;8.698;2023-07-24T14:53:12;6.70;;;6.00;;
1569;SDS011;778;50.120;8.698;2023-07-24T14:55:41;6.83;;;6.20;;
1569;SDS011;778;50.120;8.698;2023-07-24T14:58:09;6.13;;;5.63;;
1569;SDS011;778;50.120;8.698;2023-07-24T15:00:38;10.70;;;6.23;;
1569;SDS011;778;50.120;8.698;2023-07-24T15:03:06;7.13;;;6.47;;
1569;SDS011;778;50.120;8.698;2023-07-24T15:05:35;7.47;;;5.90;;
1569;SDS011;778;50.120;8.698;2023-07-24T15:08:03;6.00;;;5.47;;
1569;SDS011;778;50.120;8.698;2023-07-24T15:10:33;6.93;;;6.23;;
1569;SDS011;778;50.120;8.698;2023-07-24T15:13:01;5.90;;;5.40;;
1569;SDS011;778;50.120;8.698;2023-07-24T15:15:30;6.73;;;6.03;;
1569;SDS011;778;50.120;8.698;2023-07-24T15:17:59;8.10;;;5.60;;
1569;SDS011;778;50.120;8.698;2023-07-24T15:20:27;5.10;;;4.70;;
1569;SDS011;778;50.120;8.698;2023-07-24T15:22:56;4.07;;;3.77;;
1569;SDS011;778;50.120;8.698;2023-07-24T15:25:24;4.77;;;4.37;;
1569;SDS011;778;50.120;8.698;2023-07-24T15:27:54;3.53;;;3.20;;
1569;SDS011;778;50.120;8.698;2023-07-24T15:30:22;4.30;;;3.80;;
1569;SDS011;778;50.120;8.698;2023-07-24T15:32:50;4.57;;;3.97;;
1569;SDS011;778;50.120;8.698;2023-07-24T15:35:19;6.30;;;4.80;;
1569;SDS011;778;50.120;8.698;2023-07-24T15:37:48;9.83;;;5.67;;
1569;SDS011;778;50.120;8.698;2023-07-24T15:40:16;5.60;;;3.60;;
1569;SDS011;778;50.120;8.698;2023-07-24T15:42:44;5.13;;;2.40;;
1569;SDS011;778;50.120;8.698;2023-07-24T15:45:14;8.90;;;2.60;;